createdAt,value
2019-02-02T00:01:05.892Z,0
2019-02-02T00:02:15.584Z,0
2019-02-02T00:03:25.254Z,0
2019-02-02T00:04:34.680Z,0
2019-02-02T00:05:44.354Z,0
2019-02-02T00:06:54.023Z,0
2019-02-02T00:08:03.706Z,0
2019-02-02T00:09:13.635Z,0
2019-02-02T00:10:23.049Z,0
2019-02-02T00:11:32.998Z,0
2019-02-02T00:12:42.680Z,0
2019-02-02T00:13:52.114Z,0
2019-02-02T00:15:01.540Z,0
2019-02-02T00:16:11.474Z,0
2019-02-02T00:17:20.896Z,0
2019-02-02T00:18:30.315Z,0
2019-02-02T00:19:39.731Z,0
2019-02-02T00:20:49.173Z,0
2019-02-02T00:21:59.106Z,0
2019-02-02T00:23:08.906Z,0
2019-02-02T00:24:18.473Z,0
2019-02-02T00:25:28.415Z,0
2019-02-02T00:26:38.342Z,0
2019-02-02T00:27:48.719Z,0
2019-02-02T00:28:58.150Z,0
2019-02-02T00:30:08.078Z,0
2019-02-02T00:31:17.517Z,0
2019-02-02T00:32:27.199Z,0
2019-02-02T00:33:37.121Z,0
2019-02-02T00:34:46.539Z,0
2019-02-02T00:35:55.957Z,0
2019-02-02T00:37:06.231Z,0
2019-02-02T00:38:16.163Z,0
2019-02-02T00:39:25.844Z,0
2019-02-02T00:40:35.516Z,0
2019-02-02T00:41:44.750Z,0
2019-02-02T00:42:54.176Z,0
2019-02-02T00:44:04.098Z,0
2019-02-02T00:45:13.770Z,0
2019-02-02T00:46:22.934Z,0
2019-02-02T00:47:32.853Z,0
2019-02-02T00:48:42.774Z,0
2019-02-02T00:49:52.754Z,0
2019-02-02T00:51:02.428Z,0
2019-02-02T00:52:12.228Z,0
2019-02-02T00:53:22.161Z,0
2019-02-02T00:54:31.829Z,0
2019-02-02T00:55:41.502Z,0
2019-02-02T00:56:50.693Z,0
2019-02-02T00:58:01.284Z,0
2019-02-02T00:59:10.959Z,0
2019-02-02T01:00:20.639Z,0
2019-02-02T01:01:30.326Z,0
2019-02-02T01:02:40.000Z,0
2019-02-02T01:03:49.423Z,0
2019-02-02T01:04:58.892Z,0
2019-02-02T01:06:11.827Z,0
2019-02-02T01:07:21.507Z,0
2019-02-02T01:08:31.176Z,0
2019-02-02T01:09:40.860Z,0
2019-02-02T01:10:50.780Z,0
2019-02-02T01:12:00.449Z,0
2019-02-02T01:13:10.127Z,0
2019-02-02T01:14:19.816Z,0
2019-02-02T01:15:29.745Z,0
2019-02-02T01:16:39.415Z,0
2019-02-02T01:17:49.098Z,0
2019-02-02T01:18:58.779Z,0
2019-02-02T01:20:08.458Z,0
2019-02-02T01:21:18.380Z,0
2019-02-02T01:22:28.059Z,0
2019-02-02T01:23:37.982Z,0
2019-02-02T01:24:47.927Z,0
2019-02-02T01:25:57.722Z,0
2019-02-02T01:27:07.401Z,0
2019-02-02T01:28:16.589Z,0
2019-02-02T01:29:26.532Z,0
2019-02-02T01:30:36.454Z,0
2019-02-02T01:31:46.119Z,0
2019-02-02T01:32:55.809Z,0
2019-02-02T01:34:05.294Z,0
2019-02-02T01:35:14.964Z,0
2019-02-02T01:36:24.955Z,0
2019-02-02T01:37:34.638Z,0
2019-02-02T01:38:44.331Z,0
2019-02-02T01:39:54.261Z,0
2019-02-02T01:41:04.176Z,0
2019-02-02T01:42:14.093Z,0
2019-02-02T01:43:24.020Z,0
2019-02-02T01:44:33.702Z,0
2019-02-02T01:45:43.643Z,0
2019-02-02T01:46:53.059Z,0
2019-02-02T01:48:02.728Z,0
2019-02-02T01:49:12.662Z,0
2019-02-02T01:50:22.342Z,0
2019-02-02T01:51:32.271Z,0
2019-02-02T01:52:41.456Z,0
2019-02-02T01:53:51.122Z,0
2019-02-02T01:55:00.906Z,0
2019-02-02T01:56:10.593Z,0
2019-02-02T01:57:20.262Z,0
2019-02-02T01:58:29.950Z,0
2019-02-02T01:59:39.875Z,0
2019-02-02T02:00:49.631Z,0
2019-02-02T02:01:58.817Z,0
2019-02-02T02:03:08.735Z,0
2019-02-02T02:04:18.446Z,0
2019-02-02T02:05:28.394Z,0
2019-02-02T02:06:38.317Z,0
2019-02-02T02:07:47.760Z,0
2019-02-02T02:08:57.678Z,0
2019-02-02T02:10:07.356Z,0
2019-02-02T02:11:17.398Z,0
2019-02-02T02:12:27.077Z,0
2019-02-02T02:13:37.002Z,0
2019-02-02T02:14:46.679Z,0
2019-02-02T02:15:56.099Z,0
2019-02-02T02:17:05.536Z,0
2019-02-02T02:18:15.460Z,0
2019-02-02T02:19:25.391Z,0
2019-02-02T02:20:35.310Z,0
2019-02-02T02:21:44.752Z,0
2019-02-02T02:22:54.691Z,0
2019-02-02T02:24:04.382Z,0
2019-02-02T02:25:14.309Z,0
2019-02-02T02:26:23.982Z,0
2019-02-02T02:27:33.395Z,0
2019-02-02T02:28:43.320Z,0
2019-02-02T02:29:53.244Z,0
2019-02-02T02:31:03.213Z,0
2019-02-02T02:32:13.140Z,0
2019-02-02T02:33:23.088Z,0
2019-02-02T02:34:33.160Z,0
2019-02-02T02:35:43.091Z,0
2019-02-02T02:36:52.553Z,0
2019-02-02T02:38:02.484Z,0
2019-02-02T02:39:12.592Z,0
2019-02-02T02:40:22.292Z,0
2019-02-02T02:41:31.991Z,0
2019-02-02T02:42:41.672Z,0
2019-02-02T02:43:51.376Z,0
2019-02-02T02:45:01.139Z,0
2019-02-02T02:46:10.890Z,0
2019-02-02T02:47:20.831Z,0
2019-02-02T02:48:30.504Z,0
2019-02-02T02:49:40.421Z,0
2019-02-02T02:50:50.342Z,0
2019-02-02T02:51:59.782Z,0
2019-02-02T02:53:09.796Z,0
2019-02-02T02:54:19.577Z,0
2019-02-02T02:55:29.291Z,0
2019-02-02T02:56:38.973Z,0
2019-02-02T02:57:48.430Z,0
2019-02-02T02:58:57.862Z,0
2019-02-02T03:00:07.287Z,0
2019-02-02T03:01:16.724Z,0
2019-02-02T03:02:26.638Z,0
2019-02-02T03:03:36.135Z,0
2019-02-02T03:04:46.081Z,0
2019-02-02T03:05:56.000Z,0
2019-02-02T03:07:05.986Z,0
2019-02-02T03:08:15.781Z,0
2019-02-02T03:09:24.968Z,0
2019-02-02T03:10:34.894Z,0
2019-02-02T03:11:44.868Z,0
2019-02-02T03:12:54.832Z,0
2019-02-02T03:14:04.509Z,0
2019-02-02T03:15:14.555Z,0
2019-02-02T03:16:24.537Z,0
2019-02-02T03:17:33.726Z,0
2019-02-02T03:18:43.401Z,0
2019-02-02T03:19:53.335Z,0
2019-02-02T03:21:02.503Z,0
2019-02-02T03:22:12.443Z,0
2019-02-02T03:23:22.141Z,0
2019-02-02T03:24:31.849Z,0
2019-02-02T03:25:41.802Z,0
2019-02-02T03:26:51.514Z,0
2019-02-02T03:28:01.466Z,0
2019-02-02T03:29:11.138Z,0
2019-02-02T03:30:21.322Z,0
2019-02-02T03:31:30.792Z,0
2019-02-02T03:32:40.760Z,0
2019-02-02T03:33:50.509Z,0
2019-02-02T03:35:00.456Z,0
2019-02-02T03:36:10.407Z,0
2019-02-02T03:37:20.081Z,0
2019-02-02T03:38:29.267Z,0
2019-02-02T03:39:39.219Z,0
2019-02-02T03:40:48.904Z,0
2019-02-02T03:41:58.630Z,0
2019-02-02T03:43:08.187Z,0
2019-02-02T03:44:17.869Z,0
2019-02-02T03:45:27.552Z,0
2019-02-02T03:46:36.996Z,0
2019-02-02T03:47:46.676Z,0
2019-02-02T03:48:56.147Z,0
2019-02-02T03:50:05.846Z,0
2019-02-02T03:51:15.518Z,0
2019-02-02T03:52:25.467Z,0
2019-02-02T03:53:35.414Z,0
2019-02-02T03:54:48.669Z,0
2019-02-02T03:55:58.640Z,0
2019-02-02T03:57:08.586Z,0
2019-02-02T03:58:18.250Z,0
2019-02-02T03:59:27.707Z,0
2019-02-02T04:00:37.141Z,0
2019-02-02T04:01:47.141Z,0
2019-02-02T04:02:56.822Z,0
2019-02-02T04:04:06.764Z,0
2019-02-02T04:05:16.203Z,0
2019-02-02T04:06:25.911Z,0
2019-02-02T04:07:35.854Z,0
2019-02-02T04:08:45.801Z,0
2019-02-02T04:09:55.503Z,0
2019-02-02T04:11:05.207Z,0
2019-02-02T04:12:15.172Z,0
2019-02-02T04:13:25.112Z,0
2019-02-02T04:14:34.306Z,0
2019-02-02T04:15:43.990Z,0
2019-02-02T04:16:53.171Z,0
2019-02-02T04:18:02.592Z,0
2019-02-02T04:19:12.146Z,0
2019-02-02T04:20:22.063Z,0
2019-02-02T04:21:31.591Z,0
2019-02-02T04:22:42.969Z,0
2019-02-02T04:23:52.403Z,0
2019-02-02T04:25:01.858Z,0
2019-02-02T04:26:11.818Z,0
2019-02-02T04:27:21.749Z,0
2019-02-02T04:28:31.257Z,0
2019-02-02T04:29:41.173Z,0
2019-02-02T04:30:51.110Z,0
2019-02-02T04:32:01.031Z,0
2019-02-02T04:33:10.701Z,0
2019-02-02T04:34:20.381Z,0
2019-02-02T04:35:29.947Z,0
2019-02-02T04:36:39.873Z,0
2019-02-02T04:37:49.799Z,0
2019-02-02T04:38:59.984Z,0
2019-02-02T04:40:09.408Z,0
2019-02-02T04:41:19.326Z,0
2019-02-02T04:42:28.998Z,0
2019-02-02T04:43:38.466Z,0
2019-02-02T04:44:48.149Z,0
2019-02-02T04:45:58.065Z,0
2019-02-02T04:47:07.240Z,0
2019-02-02T04:48:16.913Z,0
2019-02-02T04:49:26.582Z,0
2019-02-02T04:50:36.265Z,0
2019-02-02T04:51:45.947Z,0
2019-02-02T04:52:55.626Z,0
2019-02-02T04:54:05.405Z,0
2019-02-02T04:55:14.589Z,0
2019-02-02T04:56:24.282Z,0
2019-02-02T04:57:33.702Z,0
2019-02-02T04:58:43.373Z,0
2019-02-02T04:59:53.059Z,0
2019-02-02T05:01:02.476Z,0
2019-02-02T05:02:12.401Z,0
2019-02-02T05:03:22.318Z,0
2019-02-02T05:04:31.993Z,0
2019-02-02T05:05:41.710Z,0
2019-02-02T05:06:51.636Z,0
2019-02-02T05:08:01.059Z,0
2019-02-02T05:09:10.763Z,0
2019-02-02T05:10:20.685Z,0
2019-02-02T05:11:30.110Z,0
2019-02-02T05:12:39.791Z,0
2019-02-02T05:13:48.977Z,0
2019-02-02T05:14:58.892Z,0
2019-02-02T05:16:08.322Z,0
2019-02-02T05:17:18.240Z,0
2019-02-02T05:18:28.179Z,0
2019-02-02T05:19:37.851Z,0
2019-02-02T05:20:47.519Z,0
2019-02-02T05:21:57.193Z,0
2019-02-02T05:23:07.144Z,0
2019-02-02T05:24:16.841Z,0
2019-02-02T05:25:26.260Z,0
2019-02-02T05:26:36.178Z,0
2019-02-02T05:27:46.161Z,0
2019-02-02T05:28:56.081Z,0
2019-02-02T05:30:06.029Z,0
2019-02-02T05:31:15.214Z,0
2019-02-02T05:32:24.636Z,0
2019-02-02T05:33:34.308Z,0
2019-02-02T05:34:44.233Z,0
2019-02-02T05:35:54.150Z,0
2019-02-02T05:37:03.820Z,0
2019-02-02T05:38:12.991Z,0
2019-02-02T05:39:22.661Z,0
2019-02-02T05:40:32.586Z,0
2019-02-02T05:41:42.505Z,0
2019-02-02T05:42:52.172Z,0
2019-02-02T05:44:01.599Z,0
2019-02-02T05:45:10.840Z,0
2019-02-02T05:46:20.016Z,0
2019-02-02T05:47:29.933Z,0
2019-02-02T05:48:39.606Z,0
2019-02-02T05:49:52.001Z,0
2019-02-02T05:51:01.419Z,0
2019-02-02T05:52:11.093Z,0
2019-02-02T05:53:21.034Z,0
2019-02-02T05:54:30.453Z,0
2019-02-02T05:55:40.133Z,0
2019-02-02T05:56:49.554Z,0
2019-02-02T05:57:59.234Z,0
2019-02-02T05:59:08.649Z,0
2019-02-02T06:00:18.324Z,0
2019-02-02T06:01:30.016Z,0
2019-02-02T06:02:39.842Z,0
2019-02-02T06:03:49.264Z,0
2019-02-02T06:04:59.184Z,0
2019-02-02T06:06:09.216Z,0
2019-02-02T06:07:18.899Z,0
2019-02-02T06:08:28.099Z,0
2019-02-02T06:09:37.769Z,0
2019-02-02T06:10:47.689Z,0
2019-02-02T06:11:57.380Z,0
2019-02-02T06:13:07.068Z,0
2019-02-02T06:14:16.757Z,0
2019-02-02T06:15:28.552Z,0
2019-02-02T06:16:38.562Z,0
2019-02-02T06:17:48.229Z,0
2019-02-02T06:18:57.656Z,0
2019-02-02T06:20:07.591Z,0
2019-02-02T06:21:17.011Z,0
2019-02-02T06:22:26.683Z,0
2019-02-02T06:23:36.628Z,0
2019-02-02T06:24:46.562Z,0
2019-02-02T06:25:56.025Z,0
2019-02-02T06:27:05.204Z,0
2019-02-02T06:28:14.628Z,0
2019-02-02T06:29:23.802Z,0
2019-02-02T06:30:33.721Z,0
2019-02-02T06:31:43.397Z,0
2019-02-02T06:32:53.154Z,0
2019-02-02T06:34:03.077Z,0
2019-02-02T06:35:12.509Z,0
2019-02-02T06:36:22.491Z,0
2019-02-02T06:37:32.418Z,4
2019-02-02T06:38:42.093Z,4
2019-02-02T06:39:51.766Z,4
2019-02-02T06:41:01.438Z,4
2019-02-02T06:42:11.359Z,4
2019-02-02T06:43:21.029Z,4
2019-02-02T06:44:30.699Z,8
2019-02-02T06:45:40.375Z,8
2019-02-02T06:46:50.799Z,8
2019-02-02T06:48:00.834Z,12
2019-02-02T06:49:10.526Z,12
2019-02-02T06:50:20.207Z,16
2019-02-02T06:51:29.630Z,16
2019-02-02T06:52:39.092Z,24
2019-02-02T06:53:48.780Z,24
2019-02-02T06:54:58.715Z,28
2019-02-02T06:56:08.397Z,32
2019-02-02T06:57:18.068Z,36
2019-02-02T06:58:27.997Z,44
2019-02-02T06:59:37.683Z,52
2019-02-02T07:00:47.600Z,56
2019-02-02T07:01:57.278Z,60
2019-02-02T07:03:06.948Z,68
2019-02-02T07:04:16.862Z,76
2019-02-02T07:05:26.793Z,84
2019-02-02T07:06:36.225Z,92
2019-02-02T07:07:45.638Z,100
2019-02-02T07:08:55.066Z,108
2019-02-02T07:10:04.995Z,116
2019-02-02T07:11:14.683Z,128
2019-02-02T07:12:23.861Z,140
2019-02-02T07:13:35.765Z,148
2019-02-02T07:14:45.752Z,164
2019-02-02T07:15:55.420Z,180
2019-02-02T07:17:05.099Z,196
2019-02-02T07:18:14.768Z,212
2019-02-02T07:19:24.685Z,228
2019-02-02T07:20:36.836Z,248
2019-02-02T07:21:46.609Z,264
2019-02-02T07:22:56.288Z,280
2019-02-02T07:24:06.215Z,292
2019-02-02T07:25:16.142Z,304
2019-02-02T07:26:25.307Z,308
2019-02-02T07:27:35.241Z,316
2019-02-02T07:28:44.928Z,328
2019-02-02T07:29:54.596Z,336
2019-02-02T07:31:04.525Z,344
2019-02-02T07:32:14.220Z,356
2019-02-02T07:33:24.146Z,372
2019-02-02T07:34:33.366Z,388
2019-02-02T07:35:42.783Z,404
2019-02-02T07:36:52.461Z,424
2019-02-02T07:38:02.155Z,440
2019-02-02T07:39:11.325Z,460
2019-02-02T07:40:21.255Z,484
2019-02-02T07:41:31.186Z,508
2019-02-02T07:42:41.114Z,536
2019-02-02T07:43:50.533Z,564
2019-02-02T07:45:00.466Z,592
2019-02-02T07:46:21.665Z,632
2019-02-02T07:47:31.339Z,664
2019-02-02T07:48:41.032Z,696
2019-02-02T07:49:50.713Z,732
2019-02-02T07:51:00.640Z,776
2019-02-02T07:52:10.665Z,832
2019-02-02T07:53:19.833Z,896
2019-02-02T07:54:29.521Z,976
2019-02-02T07:55:40.834Z,1084
2019-02-02T07:56:50.531Z,1204
2019-02-02T07:58:00.202Z,1328
2019-02-02T07:59:09.874Z,1440
2019-02-02T08:00:20.805Z,1516
2019-02-02T08:01:30.746Z,1568
2019-02-02T08:02:40.416Z,1564
2019-02-02T08:03:49.854Z,1536
2019-02-02T08:04:59.532Z,1488
2019-02-02T08:06:09.452Z,1436
2019-02-02T08:07:19.214Z,1404
2019-02-02T08:08:28.897Z,1400
2019-02-02T08:09:38.835Z,1440
2019-02-02T08:10:48.777Z,1500
2019-02-02T08:11:58.727Z,1580
2019-02-02T08:13:08.645Z,1656
2019-02-02T08:14:18.567Z,1736
2019-02-02T08:15:28.243Z,1800
2019-02-02T08:16:37.665Z,1860
2019-02-02T08:17:47.592Z,1896
2019-02-02T08:18:57.519Z,1916
2019-02-02T08:20:07.227Z,1920
2019-02-02T08:21:16.647Z,1924
2019-02-02T08:22:26.076Z,1924
2019-02-02T08:23:36.007Z,1936
2019-02-02T08:24:46.012Z,1968
2019-02-02T08:25:55.434Z,2016
2019-02-02T08:27:04.864Z,2080
2019-02-02T08:28:14.043Z,2144
2019-02-02T08:29:23.968Z,2180
2019-02-02T08:30:35.720Z,2212
2019-02-02T08:31:45.818Z,2220
2019-02-02T08:32:55.764Z,2200
2019-02-02T08:34:05.693Z,2176
2019-02-02T08:35:15.116Z,2140
2019-02-02T08:36:24.541Z,2104
2019-02-02T08:37:33.963Z,2076
2019-02-02T08:38:43.904Z,2044
2019-02-02T08:39:53.825Z,1984
2019-02-02T08:41:03.528Z,1960
2019-02-02T08:42:13.198Z,1920
2019-02-02T08:43:22.970Z,1876
2019-02-02T08:44:34.220Z,1840
2019-02-02T08:45:43.895Z,1828
2019-02-02T08:46:53.572Z,1832
2019-02-02T08:48:03.253Z,1872
2019-02-02T08:49:12.947Z,1932
2019-02-02T08:50:22.633Z,2004
2019-02-02T08:51:32.320Z,2096
2019-02-02T08:52:42.017Z,2188
2019-02-02T08:53:51.192Z,2276
2019-02-02T08:55:01.141Z,2348
2019-02-02T08:56:11.124Z,2400
2019-02-02T08:57:20.975Z,2404
2019-02-02T08:58:31.071Z,2392
2019-02-02T08:59:41.011Z,2384
2019-02-02T09:00:51.037Z,2408
2019-02-02T09:02:11.301Z,2504
2019-02-02T09:03:20.516Z,2652
2019-02-02T09:04:29.898Z,2840
2019-02-02T09:05:39.970Z,3036
2019-02-02T09:06:49.162Z,3240
2019-02-02T09:07:58.216Z,3432
2019-02-02T09:09:07.920Z,3568
2019-02-02T09:10:17.097Z,3648
2019-02-02T09:11:26.792Z,3696
2019-02-02T09:12:36.727Z,3696
2019-02-02T09:13:46.661Z,3752
2019-02-02T09:14:56.337Z,3820
2019-02-02T09:16:05.763Z,3960
2019-02-02T09:17:14.936Z,4140
2019-02-02T09:18:24.867Z,4316
2019-02-02T09:19:34.302Z,4460
2019-02-02T09:20:43.985Z,4540
2019-02-02T09:21:53.158Z,4572
2019-02-02T09:23:13.128Z,4576
2019-02-02T09:24:22.804Z,4568
2019-02-02T09:25:32.008Z,4580
2019-02-02T09:26:41.685Z,4636
2019-02-02T09:27:51.109Z,4744
2019-02-02T09:29:00.791Z,4920
2019-02-02T09:30:10.481Z,5080
2019-02-02T09:31:23.445Z,5164
2019-02-02T09:32:33.384Z,5180
2019-02-02T09:33:42.814Z,5096
2019-02-02T09:34:52.497Z,5016
2019-02-02T09:36:01.936Z,4960
2019-02-02T09:37:11.614Z,4976
2019-02-02T09:38:21.550Z,5088
2019-02-02T09:39:30.983Z,5224
2019-02-02T09:40:40.657Z,5264
2019-02-02T09:41:50.090Z,5288
2019-02-02T09:43:00.141Z,5284
2019-02-02T09:44:09.813Z,5280
2019-02-02T09:45:19.510Z,5284
2019-02-02T09:46:29.439Z,5184
2019-02-02T09:47:39.384Z,5024
2019-02-02T09:48:49.082Z,4860
2019-02-02T09:49:58.257Z,4704
2019-02-02T09:51:07.931Z,4592
2019-02-02T09:52:17.619Z,4528
2019-02-02T09:53:27.554Z,4520
2019-02-02T09:54:37.223Z,4568
2019-02-02T09:55:46.656Z,4644
2019-02-02T09:56:56.140Z,4748
2019-02-02T09:58:08.541Z,4816
2019-02-02T09:59:18.726Z,4912
2019-02-02T10:00:28.414Z,5044
2019-02-02T10:01:38.104Z,5192
2019-02-02T10:02:50.621Z,5324
2019-02-02T10:04:00.048Z,5444
2019-02-02T10:05:09.731Z,5612
2019-02-02T10:06:19.663Z,5804
2019-02-02T10:07:29.329Z,5988
2019-02-02T10:08:39.266Z,6172
2019-02-02T10:09:49.196Z,6256
2019-02-02T10:10:58.623Z,6248
2019-02-02T10:12:08.622Z,6160
2019-02-02T10:13:18.563Z,6048
2019-02-02T10:14:28.241Z,5952
2019-02-02T10:15:37.923Z,5856
2019-02-02T10:16:47.347Z,5704
2019-02-02T10:17:57.286Z,5496
2019-02-02T10:19:07.036Z,5252
2019-02-02T10:20:16.712Z,4956
2019-02-02T10:21:26.163Z,4680
2019-02-02T10:22:36.093Z,4468
2019-02-02T10:23:45.267Z,4356
2019-02-02T10:24:54.941Z,4324
2019-02-02T10:26:04.373Z,4348
2019-02-02T10:27:14.058Z,4416
2019-02-02T10:28:23.980Z,4484
2019-02-02T10:29:33.909Z,4516
2019-02-02T10:30:43.833Z,4536
2019-02-02T10:31:53.528Z,4524
2019-02-02T10:33:02.969Z,4520
2019-02-02T10:34:14.782Z,4520
2019-02-02T10:35:23.956Z,4476
2019-02-02T10:36:33.650Z,4356
2019-02-02T10:37:43.581Z,4340
2019-02-02T10:38:52.791Z,4280
2019-02-02T10:40:01.977Z,4208
2019-02-02T10:41:11.662Z,4232
2019-02-02T10:42:21.342Z,4344
2019-02-02T10:43:30.526Z,4472
2019-02-02T10:44:39.710Z,4588
2019-02-02T10:45:49.136Z,4608
2019-02-02T10:46:58.323Z,4632
2019-02-02T10:48:08.251Z,4680
2019-02-02T10:49:17.435Z,4724
2019-02-02T10:50:26.863Z,4752
2019-02-02T10:51:36.062Z,4836
2019-02-02T10:52:46.022Z,4932
2019-02-02T10:53:55.968Z,5032
2019-02-02T10:55:05.890Z,5116
2019-02-02T10:56:15.336Z,5172
2019-02-02T10:57:24.509Z,5168
2019-02-02T10:58:33.691Z,5140
2019-02-02T10:59:43.379Z,5224
2019-02-02T11:00:56.212Z,5452
2019-02-02T11:02:06.142Z,5732
2019-02-02T11:03:15.834Z,5908
2019-02-02T11:04:25.682Z,5916
2019-02-02T11:05:35.771Z,5920
2019-02-02T11:06:46.086Z,6056
2019-02-02T11:07:59.428Z,6328
2019-02-02T11:09:09.948Z,6596
2019-02-02T11:10:23.088Z,6748
2019-02-02T11:11:33.252Z,6796
2019-02-02T11:12:43.317Z,6840
2019-02-02T11:13:53.574Z,6888
2019-02-02T11:15:03.716Z,6884
2019-02-02T11:16:15.893Z,6772
2019-02-02T11:17:26.086Z,6544
2019-02-02T11:18:36.187Z,6164
2019-02-02T11:19:46.497Z,5840
2019-02-02T11:20:56.753Z,5676
2019-02-02T11:22:07.264Z,5508
2019-02-02T11:23:17.700Z,5320
2019-02-02T11:24:27.977Z,5224
2019-02-02T11:25:38.363Z,5252
2019-02-02T11:26:48.676Z,5324
2019-02-02T11:27:59.265Z,5336
2019-02-02T11:29:09.767Z,5324
2019-02-02T11:30:20.104Z,5352
2019-02-02T11:31:29.804Z,5460
2019-02-02T11:32:39.743Z,5564
2019-02-02T11:33:51.588Z,5580
2019-02-02T11:35:01.525Z,5572
2019-02-02T11:36:11.473Z,5684
2019-02-02T11:37:21.407Z,5856
2019-02-02T11:38:31.082Z,6004
2019-02-02T11:39:41.012Z,6044
2019-02-02T11:40:50.441Z,6004
2019-02-02T11:41:59.883Z,5936
2019-02-02T11:43:09.581Z,5952
2019-02-02T11:44:22.420Z,6020
2019-02-02T11:45:32.102Z,6132
2019-02-02T11:46:42.044Z,6212
2019-02-02T11:47:51.465Z,6200
2019-02-02T11:49:00.651Z,6056
2019-02-02T11:50:10.343Z,5828
2019-02-02T11:51:20.266Z,5624
2019-02-02T11:52:30.734Z,5508
2019-02-02T11:53:42.322Z,5488
2019-02-02T11:54:51.996Z,5448
2019-02-02T11:56:01.672Z,5316
2019-02-02T11:57:11.348Z,5092
2019-02-02T11:58:21.403Z,4868
2019-02-02T11:59:31.082Z,4720
2019-02-02T12:00:40.813Z,4608
2019-02-02T12:01:50.521Z,4476
2019-02-02T12:02:59.693Z,4292
2019-02-02T12:04:11.790Z,4088
2019-02-02T12:05:21.727Z,3924
2019-02-02T12:06:31.409Z,3768
2019-02-02T12:07:41.342Z,3628
2019-02-02T12:08:54.079Z,3556
2019-02-02T12:10:04.024Z,3548
2019-02-02T12:11:13.697Z,3584
2019-02-02T12:12:23.507Z,3652
2019-02-02T12:13:33.472Z,3748
2019-02-02T12:14:42.895Z,3928
2019-02-02T12:15:52.324Z,4152
2019-02-02T12:17:01.305Z,4368
2019-02-02T12:18:14.282Z,4600
2019-02-02T12:19:24.307Z,4840
2019-02-02T12:20:35.836Z,4960
2019-02-02T12:21:45.775Z,4996
2019-02-02T12:22:55.715Z,4916
2019-02-02T12:24:18.931Z,4976
2019-02-02T12:25:28.636Z,5080
2019-02-02T12:26:38.330Z,5164
2019-02-02T12:27:47.760Z,5248
2019-02-02T12:28:57.686Z,5248
2019-02-02T12:30:07.110Z,5104
2019-02-02T12:31:17.030Z,4892
2019-02-02T12:32:33.826Z,4832
2019-02-02T12:33:43.754Z,4640
2019-02-02T12:34:53.435Z,4692
2019-02-02T12:36:03.112Z,4724
2019-02-02T12:37:12.550Z,4912
2019-02-02T12:38:22.243Z,4880
2019-02-02T12:39:32.176Z,5076
2019-02-02T12:40:41.854Z,5208
2019-02-02T12:41:51.031Z,5316
2019-02-02T12:43:00.713Z,5316
2019-02-02T12:44:10.168Z,5420
2019-02-02T12:45:19.604Z,5308
2019-02-02T12:46:29.044Z,5136
2019-02-02T12:47:38.731Z,4980
2019-02-02T12:48:48.666Z,4740
2019-02-02T12:49:58.353Z,4700
2019-02-02T12:51:07.958Z,4640
2019-02-02T12:52:17.643Z,4548
2019-02-02T12:53:27.078Z,4516
2019-02-02T12:54:37.020Z,4480
2019-02-02T12:55:46.700Z,4404
2019-02-02T12:56:56.144Z,4352
2019-02-02T12:58:06.063Z,4304
2019-02-02T12:59:15.801Z,4204
2019-02-02T13:00:25.571Z,4236
2019-02-02T13:01:35.016Z,4196
2019-02-02T13:02:45.736Z,4052
2019-02-02T13:04:08.051Z,4148
2019-02-02T13:05:17.742Z,4008
2019-02-02T13:06:27.428Z,4016
2019-02-02T13:07:36.924Z,3944
2019-02-02T13:08:46.366Z,4012
2019-02-02T13:09:56.059Z,4040
2019-02-02T13:11:05.986Z,4000
2019-02-02T13:12:15.666Z,3972
2019-02-02T13:13:25.094Z,3920
2019-02-02T13:14:34.774Z,3900
2019-02-02T13:15:44.480Z,3808
2019-02-02T13:16:59.823Z,3808
2019-02-02T13:18:09.791Z,3892
2019-02-02T13:19:21.002Z,3964
2019-02-02T13:20:30.440Z,3964
2019-02-02T13:21:40.378Z,4024
2019-02-02T13:22:50.325Z,4092
2019-02-02T13:24:00.007Z,4008
2019-02-02T13:25:09.986Z,3908
2019-02-02T13:26:19.922Z,3760
2019-02-02T13:27:29.591Z,3788
2019-02-02T13:28:39.517Z,3868
2019-02-02T13:29:51.898Z,3836
2019-02-02T13:31:01.968Z,3692
2019-02-02T13:32:12.009Z,3552
2019-02-02T13:33:21.930Z,3524
2019-02-02T13:34:31.876Z,3488
2019-02-02T13:35:41.577Z,3660
2019-02-02T13:36:51.511Z,3612
2019-02-02T13:38:01.186Z,3456
2019-02-02T13:39:10.861Z,3292
2019-02-02T13:40:20.284Z,3308
2019-02-02T13:41:30.209Z,3416
2019-02-02T13:42:40.254Z,3600
2019-02-02T13:43:49.974Z,3680
2019-02-02T13:44:59.401Z,3616
2019-02-02T13:46:08.847Z,3584
2019-02-02T13:47:18.523Z,3760
2019-02-02T13:48:28.193Z,3912
2019-02-02T13:49:38.129Z,3884
2019-02-02T13:50:48.255Z,3840
2019-02-02T13:51:58.019Z,3852
2019-02-02T13:53:07.461Z,3752
2019-02-02T13:54:17.145Z,3652
2019-02-02T13:55:27.083Z,3544
2019-02-02T13:56:36.754Z,3448
2019-02-02T13:57:46.193Z,3280
2019-02-02T13:58:55.620Z,3116
2019-02-02T14:00:05.160Z,2984
2019-02-02T14:01:14.842Z,2860
2019-02-02T14:02:24.585Z,2780
2019-02-02T14:03:34.509Z,2700
2019-02-02T14:04:43.941Z,2624
2019-02-02T14:05:53.135Z,2540
2019-02-02T14:07:02.065Z,2488
2019-02-02T14:08:11.520Z,2416
2019-02-02T14:09:20.957Z,2364
2019-02-02T14:10:30.878Z,2248
2019-02-02T14:11:40.577Z,2184
2019-02-02T14:12:50.031Z,2120
2019-02-02T14:13:59.832Z,2120
2019-02-02T14:15:09.007Z,2052
2019-02-02T14:16:18.428Z,2056
2019-02-02T14:17:28.372Z,2124
2019-02-02T14:18:38.334Z,2160
2019-02-02T14:19:48.008Z,2028
2019-02-02T14:20:57.449Z,1960
2019-02-02T14:22:06.874Z,1848
2019-02-02T14:23:16.545Z,1856
2019-02-02T14:24:26.219Z,1872
2019-02-02T14:25:36.217Z,1848
2019-02-02T14:26:45.917Z,1800
2019-02-02T14:27:55.863Z,1724
2019-02-02T14:29:05.318Z,1760
2019-02-02T14:30:14.750Z,1756
2019-02-02T14:31:24.186Z,1700
2019-02-02T14:32:34.144Z,1696
2019-02-02T14:33:43.574Z,1640
2019-02-02T14:34:53.260Z,1584
2019-02-02T14:36:04.387Z,1556
2019-02-02T14:37:13.561Z,1520
2019-02-02T14:38:25.204Z,1500
2019-02-02T14:39:34.631Z,1480
2019-02-02T14:40:44.559Z,1444
2019-02-02T14:41:54.250Z,1468
2019-02-02T14:43:03.686Z,1460
2019-02-02T14:44:12.637Z,1476
2019-02-02T14:45:21.844Z,1456
2019-02-02T14:46:34.369Z,1404
2019-02-02T14:47:44.080Z,1372
2019-02-02T14:48:54.020Z,1348
2019-02-02T14:50:03.707Z,1372
2019-02-02T14:51:12.882Z,1368
2019-02-02T14:52:22.574Z,1360
2019-02-02T14:53:32.261Z,1344
2019-02-02T14:54:41.931Z,1320
2019-02-02T14:55:53.281Z,1308
2019-02-02T14:57:02.955Z,1304
2019-02-02T14:58:12.904Z,1292
2019-02-02T14:59:22.829Z,1272
2019-02-02T15:00:32.504Z,1232
2019-02-02T15:01:42.432Z,1200
2019-02-02T15:02:52.106Z,1156
2019-02-02T15:04:01.845Z,1104
2019-02-02T15:05:11.767Z,1056
2019-02-02T15:06:21.206Z,1016
2019-02-02T15:07:30.925Z,972
2019-02-02T15:08:40.639Z,932
2019-02-02T15:09:50.322Z,944
2019-02-02T15:10:59.259Z,924
2019-02-02T15:12:08.687Z,904
2019-02-02T15:13:18.619Z,868
2019-02-02T15:14:28.549Z,864
2019-02-02T15:15:38.493Z,860
2019-02-02T15:16:47.923Z,840
2019-02-02T15:17:57.984Z,836
2019-02-02T15:19:07.683Z,848
2019-02-02T15:20:17.120Z,820
2019-02-02T15:21:29.894Z,860
2019-02-02T15:22:39.836Z,880
2019-02-02T15:23:52.457Z,864
2019-02-02T15:25:01.898Z,836
2019-02-02T15:26:11.838Z,804
2019-02-02T15:27:21.773Z,776
2019-02-02T15:28:31.455Z,724
2019-02-02T15:29:41.386Z,728
2019-02-02T15:30:51.325Z,692
2019-02-02T15:32:01.326Z,640
2019-02-02T15:33:11.006Z,580
2019-02-02T15:34:21.069Z,548
2019-02-02T15:35:30.508Z,552
2019-02-02T15:36:40.431Z,564
2019-02-02T15:37:50.127Z,568
2019-02-02T15:39:00.055Z,572
2019-02-02T15:40:09.730Z,572
2019-02-02T15:41:19.410Z,576
2019-02-02T15:42:29.345Z,492
2019-02-02T15:43:39.029Z,440
2019-02-02T15:44:48.716Z,408
2019-02-02T15:45:58.408Z,356
2019-02-02T15:47:08.347Z,332
2019-02-02T15:48:18.302Z,304
2019-02-02T15:49:28.241Z,252
2019-02-02T15:50:38.172Z,240
2019-02-02T15:51:47.347Z,244
2019-02-02T15:52:57.031Z,208
2019-02-02T15:54:06.586Z,192
2019-02-02T15:55:15.529Z,208
2019-02-02T15:56:25.197Z,200
2019-02-02T15:57:34.622Z,180
2019-02-02T15:58:44.056Z,172
2019-02-02T15:59:53.522Z,168
2019-02-02T16:01:02.445Z,148
2019-02-02T16:02:12.365Z,144
2019-02-02T16:03:22.289Z,132
2019-02-02T16:04:31.221Z,124
2019-02-02T16:05:41.149Z,116
2019-02-02T16:06:50.823Z,108
2019-02-02T16:08:00.858Z,116
2019-02-02T16:09:10.566Z,96
2019-02-02T16:10:22.615Z,84
2019-02-02T16:11:32.055Z,76
2019-02-02T16:12:41.740Z,72
2019-02-02T16:13:51.443Z,60
2019-02-02T16:15:01.378Z,52
2019-02-02T16:16:11.358Z,48
2019-02-02T16:17:20.805Z,44